createdAt,value
2022-11-26T00:00:37.700Z,48.70
2022-11-26T00:01:37.697Z,84.10
2022-11-26T00:02:37.830Z,49.90
2022-11-26T00:03:37.741Z,50.30
2022-11-26T00:04:37.849Z,43.70
2022-11-26T00:05:37.662Z,34.70
2022-11-26T00:06:37.687Z,36.40
2022-11-26T00:07:37.931Z,45.00
2022-11-26T00:08:37.665Z,59.20
2022-11-26T00:09:37.640Z,48.30
2022-11-26T00:10:37.586Z,64.50
2022-11-26T00:11:37.600Z,60.00
2022-11-26T00:12:37.584Z,58.70
2022-11-26T00:13:37.583Z,38.70
2022-11-26T00:14:37.818Z,44.10
2022-11-26T00:15:37.574Z,56.10
2022-11-26T00:16:37.585Z,52.30
2022-11-26T00:17:37.507Z,71.80
2022-11-26T00:18:37.514Z,60.00
2022-11-26T00:19:37.550Z,97.20
2022-11-26T00:20:37.494Z,95.60
2022-11-26T00:21:37.450Z,103.40
2022-11-26T00:22:37.448Z,72.20
2022-11-26T00:23:37.470Z,90.70
2022-11-26T00:24:37.769Z,68.70
2022-11-26T00:25:37.478Z,109.90
2022-11-26T00:26:37.412Z,59.80
2022-11-26T00:27:37.395Z,45.60
2022-11-26T00:28:37.440Z,65.20
2022-11-26T00:29:37.378Z,125.60
2022-11-26T00:30:37.424Z,195.00
2022-11-26T00:31:37.414Z,70.00
2022-11-26T00:32:37.354Z,153.10
2022-11-26T00:33:37.327Z,99.60
2022-11-26T00:34:37.530Z,61.40
2022-11-26T00:35:37.329Z,43.60
2022-11-26T00:36:37.349Z,46.30
2022-11-26T00:37:37.343Z,46.30
2022-11-26T00:38:37.287Z,106.40
2022-11-26T00:39:37.270Z,107.40
2022-11-26T00:40:37.305Z,72.70
2022-11-26T00:41:37.300Z,53.30
2022-11-26T00:42:37.306Z,47.10
2022-11-26T00:43:37.217Z,54.70
2022-11-26T00:44:38.203Z,61.40
2022-11-26T00:45:37.260Z,81.70
2022-11-26T00:46:37.220Z,88.40
2022-11-26T00:47:37.224Z,123.50
2022-11-26T00:48:37.194Z,42.00
2022-11-26T00:49:37.235Z,47.90
2022-11-26T00:50:37.182Z,77.00
2022-11-26T00:51:37.144Z,52.80
2022-11-26T00:52:37.106Z,85.00
2022-11-26T00:53:37.212Z,108.80
2022-11-26T00:54:37.299Z,50.30
2022-11-26T00:55:37.121Z,57.20
2022-11-26T00:56:38.310Z,47.50
2022-11-26T00:57:37.148Z,46.10
2022-11-26T00:58:37.088Z,40.40
2022-11-26T00:59:37.052Z,50.40
2022-11-26T01:00:37.157Z,43.40
2022-11-26T01:01:37.165Z,41.70
2022-11-26T01:02:37.132Z,65.80
2022-11-26T01:03:37.002Z,57.30
2022-11-26T01:04:37.330Z,50.70
2022-11-26T01:05:36.979Z,47.20
2022-11-26T01:06:37.004Z,54.90
2022-11-26T01:07:37.119Z,105.10
2022-11-26T01:08:36.967Z,88.70
2022-11-26T01:09:36.920Z,187.80
2022-11-26T01:10:36.974Z,133.40
2022-11-26T01:11:36.943Z,93.10
2022-11-26T01:12:36.939Z,122.00
2022-11-26T01:13:36.896Z,92.90
2022-11-26T01:14:37.156Z,191.60
2022-11-26T01:15:36.883Z,94.80
2022-11-26T01:16:36.911Z,303.80
2022-11-26T01:17:36.887Z,203.30
2022-11-26T01:18:36.833Z,301.30
2022-11-26T01:19:36.807Z,319.20
2022-11-26T01:20:36.822Z,280.90
2022-11-26T01:21:36.804Z,349.60
2022-11-26T01:22:36.831Z,204.90
2022-11-26T01:23:36.803Z,290.40
2022-11-26T01:24:37.178Z,160.30
2022-11-26T01:25:36.773Z,291.20
2022-11-26T01:26:36.774Z,150.50
2022-11-26T01:27:36.764Z,358.20
2022-11-26T01:28:36.717Z,253.80
2022-11-26T01:29:36.724Z,325.00
2022-11-26T01:30:36.980Z,181.40
2022-11-26T01:31:36.755Z,498.90
2022-11-26T01:32:36.664Z,260.50
2022-11-26T01:33:36.681Z,384.80
2022-11-26T01:34:37.082Z,407.10
2022-11-26T01:35:36.646Z,367.90
2022-11-26T01:36:36.676Z,254.80
2022-11-26T01:37:36.635Z,242.20
2022-11-26T01:38:36.623Z,248.30
2022-11-26T01:39:36.610Z,259.30
2022-11-26T01:40:36.587Z,234.90
2022-11-26T01:41:36.575Z,246.40
2022-11-26T01:42:36.638Z,430.20
2022-11-26T01:43:36.552Z,381.50
2022-11-26T01:44:37.141Z,232.70
2022-11-26T01:45:36.593Z,176.10
2022-11-26T01:46:36.549Z,429.20
2022-11-26T01:47:36.535Z,312.70
2022-11-26T01:48:36.561Z,148.30
2022-11-26T01:49:36.481Z,220.10
2022-11-26T01:50:36.482Z,335.00
2022-11-26T01:51:36.501Z,202.80
2022-11-26T01:52:36.472Z,227.20
2022-11-26T01:53:36.522Z,96.90
2022-11-26T01:54:36.689Z,400.80
2022-11-26T01:55:36.429Z,93.50
2022-11-26T01:56:36.433Z,158.80
2022-11-26T01:57:36.397Z,261.20
2022-11-26T01:58:39.901Z,111.50
2022-11-26T01:59:36.404Z,109.40
2022-11-26T02:00:36.364Z,68.70
2022-11-26T02:01:36.483Z,185.60
2022-11-26T02:02:36.405Z,106.60
2022-11-26T02:03:36.332Z,150.90
2022-11-26T02:04:36.731Z,119.90
2022-11-26T02:05:36.382Z,320.90
2022-11-26T02:06:36.301Z,232.60
2022-11-26T02:07:36.326Z,110.80
2022-11-26T02:08:36.275Z,169.20
2022-11-26T02:09:36.281Z,72.10
2022-11-26T02:10:36.320Z,117.50
2022-11-26T02:11:36.521Z,240.30
2022-11-26T02:12:36.243Z,209.70
2022-11-26T02:13:36.222Z,108.40
2022-11-26T02:14:37.411Z,498.30
2022-11-26T02:15:36.244Z,143.30
2022-11-26T02:16:36.275Z,192.20
2022-11-26T02:17:36.240Z,117.80
2022-11-26T02:18:36.205Z,346.90
2022-11-26T02:19:36.190Z,230.90
2022-11-26T02:20:36.157Z,283.10
2022-11-26T02:21:36.231Z,293.20
2022-11-26T02:22:36.157Z,443.60
2022-11-26T02:23:36.125Z,470.60
2022-11-26T02:24:36.674Z,190.10
2022-11-26T02:25:36.084Z,409.00
2022-11-26T02:26:36.123Z,391.00
2022-11-26T02:27:36.060Z,586.80
2022-11-26T02:28:36.103Z,344.80
2022-11-26T02:29:36.092Z,346.60
2022-11-26T02:30:36.063Z,353.30
2022-11-26T02:31:36.085Z,456.10
2022-11-26T02:32:36.046Z,366.50
2022-11-26T02:33:36.064Z,235.90
2022-11-26T02:34:38.031Z,388.40
2022-11-26T02:35:36.050Z,266.20
2022-11-26T02:36:35.970Z,442.20
2022-11-26T02:37:35.965Z,381.50
2022-11-26T02:38:35.978Z,386.40
2022-11-26T02:39:36.017Z,163.30
2022-11-26T02:40:35.950Z,344.50
2022-11-26T02:41:35.933Z,186.80
2022-11-26T02:42:35.940Z,529.20
2022-11-26T02:43:35.956Z,291.90
2022-11-26T02:44:36.133Z,282.50
2022-11-26T02:45:35.981Z,430.30
2022-11-26T02:46:35.879Z,491.20
2022-11-26T02:47:35.905Z,412.00
2022-11-26T02:48:35.854Z,363.40
2022-11-26T02:49:35.838Z,280.70
2022-11-26T02:50:35.820Z,246.80
2022-11-26T02:51:35.845Z,221.90
2022-11-26T02:52:35.817Z,222.40
2022-11-26T02:53:35.797Z,188.20
2022-11-26T02:54:36.128Z,349.60
2022-11-26T02:55:36.432Z,167.20
2022-11-26T02:56:35.819Z,379.40
2022-11-26T02:57:35.780Z,348.10
2022-11-26T02:58:35.726Z,335.50
2022-11-26T02:59:35.745Z,352.50
2022-11-26T03:00:35.710Z,354.60
2022-11-26T03:01:35.743Z,260.10
2022-11-26T03:02:35.769Z,196.00
2022-11-26T03:03:35.713Z,212.20
2022-11-26T03:04:35.984Z,241.50
2022-11-26T03:05:35.634Z,322.60
2022-11-26T03:06:35.664Z,250.90
2022-11-26T03:07:35.644Z,393.40
2022-11-26T03:08:35.621Z,569.40
2022-11-26T03:09:35.585Z,114.50
2022-11-26T03:10:35.587Z,292.50
2022-11-26T03:11:35.571Z,366.20
2022-11-26T03:12:35.552Z,236.90
2022-11-26T03:13:35.833Z,281.30
2022-11-26T03:14:35.677Z,477.50
2022-11-26T03:15:35.516Z,337.30
2022-11-26T03:16:35.565Z,333.50
2022-11-26T03:17:35.490Z,304.70
2022-11-26T03:18:35.484Z,302.20
2022-11-26T03:19:35.490Z,248.70
2022-11-26T03:20:35.464Z,342.00
2022-11-26T03:21:35.458Z,550.30
2022-11-26T03:22:35.454Z,369.20
2022-11-26T03:23:35.424Z,513.20
2022-11-26T03:24:35.652Z,413.80
2022-11-26T03:25:35.402Z,471.20
2022-11-26T03:26:35.397Z,444.30
2022-11-26T03:27:35.387Z,354.30
2022-11-26T03:28:35.375Z,359.50
2022-11-26T03:29:35.358Z,403.90
2022-11-26T03:30:35.379Z,268.70
2022-11-26T03:31:35.411Z,377.90
2022-11-26T03:32:35.334Z,323.20
2022-11-26T03:33:35.317Z,283.10
2022-11-26T03:34:35.558Z,329.90
2022-11-26T03:35:35.315Z,400.10
2022-11-26T03:36:35.289Z,342.70
2022-11-26T03:37:35.274Z,442.40
2022-11-26T03:38:35.265Z,266.30
2022-11-26T03:39:35.255Z,236.70
2022-11-26T03:40:35.278Z,377.90
2022-11-26T03:41:35.230Z,317.60
2022-11-26T03:42:35.221Z,407.30
2022-11-26T03:43:35.209Z,192.30
2022-11-26T03:44:35.340Z,354.10
2022-11-26T03:45:35.220Z,347.00
2022-11-26T03:46:35.224Z,193.80
2022-11-26T03:47:35.165Z,377.80
2022-11-26T03:48:35.148Z,491.30
2022-11-26T03:49:35.160Z,264.20
2022-11-26T03:50:35.148Z,260.60
2022-11-26T03:51:35.152Z,332.20
2022-11-26T03:52:35.130Z,173.50
2022-11-26T03:53:35.107Z,339.80
2022-11-26T03:54:35.156Z,203.80
2022-11-26T03:55:35.076Z,235.30
2022-11-26T03:56:35.063Z,177.70
2022-11-26T03:57:35.119Z,208.90
2022-11-26T03:58:35.036Z,233.40
2022-11-26T03:59:35.034Z,283.50
2022-11-26T04:00:35.017Z,195.10
2022-11-26T04:01:35.079Z,169.30
2022-11-26T04:02:34.995Z,328.10
2022-11-26T04:03:35.018Z,250.80
2022-11-26T04:04:35.138Z,206.90
2022-11-26T04:05:34.967Z,333.90
2022-11-26T04:06:34.948Z,206.10
2022-11-26T04:07:35.029Z,273.70
2022-11-26T04:08:34.926Z,218.80
2022-11-26T04:09:34.952Z,385.70
2022-11-26T04:10:34.916Z,186.70
2022-11-26T04:11:34.901Z,212.60
2022-11-26T04:12:34.882Z,344.40
2022-11-26T04:13:34.879Z,333.70
2022-11-26T04:14:34.867Z,334.70
2022-11-26T04:15:34.917Z,286.30
2022-11-26T04:16:34.900Z,181.30
2022-11-26T04:17:34.828Z,262.30
2022-11-26T04:18:34.828Z,407.40
2022-11-26T04:19:34.809Z,242.00
2022-11-26T04:20:34.820Z,248.10
2022-11-26T04:21:34.788Z,292.20
2022-11-26T04:22:34.778Z,246.20
2022-11-26T04:23:34.761Z,274.00
2022-11-26T04:24:34.755Z,230.00
2022-11-26T04:25:34.774Z,174.10
2022-11-26T04:26:34.739Z,302.90
2022-11-26T04:27:34.718Z,359.60
2022-11-26T04:28:34.712Z,167.60
2022-11-26T04:29:34.696Z,257.20
2022-11-26T04:30:34.690Z,199.70
2022-11-26T04:31:34.746Z,239.70
2022-11-26T04:32:34.670Z,135.30
2022-11-26T04:33:34.651Z,176.70
2022-11-26T04:34:34.645Z,315.40
2022-11-26T04:35:34.629Z,322.90
2022-11-26T04:36:34.626Z,186.80
2022-11-26T04:37:34.632Z,196.60
2022-11-26T04:38:34.594Z,193.10
2022-11-26T04:39:34.589Z,169.00
2022-11-26T04:40:34.575Z,228.50
2022-11-26T04:41:34.570Z,303.30
2022-11-26T04:42:34.574Z,226.40
2022-11-26T04:43:34.544Z,124.90
2022-11-26T04:44:34.526Z,208.90
2022-11-26T04:45:34.544Z,277.60
2022-11-26T04:46:34.509Z,190.60
2022-11-26T04:47:36.872Z,279.50
2022-11-26T04:48:34.507Z,250.40
2022-11-26T04:49:34.480Z,208.50
2022-11-26T04:50:34.489Z,123.10
2022-11-26T04:51:34.460Z,205.00
2022-11-26T04:52:34.442Z,136.70
2022-11-26T04:53:34.460Z,134.80
2022-11-26T04:54:34.418Z,114.80
2022-11-26T04:55:34.418Z,144.40
2022-11-26T04:56:34.400Z,133.10
2022-11-26T04:57:34.393Z,103.60
2022-11-26T04:58:34.375Z,102.70
2022-11-26T04:59:34.392Z,192.50
2022-11-26T05:00:34.351Z,233.70
2022-11-26T05:01:34.388Z,95.00
2022-11-26T05:02:34.402Z,195.90
2022-11-26T05:03:34.324Z,129.70
2022-11-26T05:04:34.336Z,191.50
2022-11-26T05:05:34.306Z,144.80
2022-11-26T05:06:34.285Z,207.70
2022-11-26T05:07:34.306Z,134.30
2022-11-26T05:08:34.258Z,112.30
2022-11-26T05:09:34.255Z,147.90
2022-11-26T05:10:34.270Z,143.60
2022-11-26T05:11:34.239Z,156.10
2022-11-26T05:12:34.216Z,198.80
2022-11-26T05:13:34.208Z,161.90
2022-11-26T05:14:34.193Z,180.20
2022-11-26T05:15:34.198Z,147.60
2022-11-26T05:16:34.225Z,137.90
2022-11-26T05:17:34.170Z,137.90
2022-11-26T05:18:34.173Z,168.70
2022-11-26T05:19:34.152Z,186.70
2022-11-26T05:20:34.149Z,119.90
2022-11-26T05:21:34.151Z,177.70
2022-11-26T05:22:34.109Z,141.70
2022-11-26T05:23:34.100Z,225.70
2022-11-26T05:24:34.083Z,238.00
2022-11-26T05:25:34.081Z,193.90
2022-11-26T05:26:34.092Z,323.70
2022-11-26T05:27:34.054Z,214.90
2022-11-26T05:28:34.037Z,151.10
2022-11-26T05:29:34.034Z,291.30
2022-11-26T05:30:34.019Z,247.50
2022-11-26T05:31:34.076Z,322.80
2022-11-26T05:32:34.019Z,213.40
2022-11-26T05:33:33.991Z,120.70
2022-11-26T05:34:33.975Z,275.40
2022-11-26T05:35:33.964Z,231.00
2022-11-26T05:36:33.949Z,362.50
2022-11-26T05:37:33.946Z,190.40
2022-11-26T05:38:33.958Z,262.50
2022-11-26T05:39:33.924Z,314.90
2022-11-26T05:40:33.910Z,264.20
2022-11-26T05:41:33.901Z,250.20
2022-11-26T05:42:33.890Z,229.70
2022-11-26T05:43:33.874Z,194.80
2022-11-26T05:44:33.895Z,240.20
2022-11-26T05:45:33.865Z,196.20
2022-11-26T05:46:33.851Z,214.30
2022-11-26T05:47:33.827Z,231.20
2022-11-26T05:48:33.827Z,144.30
2022-11-26T05:49:33.827Z,226.90
2022-11-26T05:50:33.802Z,209.50
2022-11-26T05:51:33.786Z,250.10
2022-11-26T05:52:33.781Z,227.20
2022-11-26T05:53:33.773Z,118.30
2022-11-26T05:54:33.804Z,148.80
2022-11-26T05:55:33.746Z,190.60
2022-11-26T05:56:33.735Z,196.30
2022-11-26T05:57:33.720Z,136.50
2022-11-26T05:58:33.710Z,155.20
2022-11-26T05:59:33.699Z,97.80
2022-11-26T06:00:33.729Z,218.00
2022-11-26T06:01:33.674Z,319.60
2022-11-26T06:02:33.787Z,202.20
2022-11-26T06:03:33.703Z,181.90
2022-11-26T06:04:33.648Z,232.00
2022-11-26T06:05:33.632Z,188.80
2022-11-26T06:06:33.646Z,170.00
2022-11-26T06:07:33.657Z,106.30
2022-11-26T06:08:33.600Z,118.90
2022-11-26T06:09:33.593Z,172.40
2022-11-26T06:10:33.582Z,202.70
2022-11-26T06:11:33.609Z,283.60
2022-11-26T06:12:33.556Z,129.00
2022-11-26T06:13:33.541Z,120.90
2022-11-26T06:14:33.536Z,174.50
2022-11-26T06:15:33.523Z,225.40
2022-11-26T06:16:33.650Z,174.40
2022-11-26T06:17:33.495Z,168.10
2022-11-26T06:18:33.492Z,202.10
2022-11-26T06:19:33.478Z,150.80
2022-11-26T06:20:33.469Z,114.10
2022-11-26T06:21:33.461Z,182.10
2022-11-26T06:22:33.482Z,143.50
2022-11-26T06:23:33.452Z,146.30
2022-11-26T06:24:33.427Z,187.10
2022-11-26T06:25:33.407Z,240.20
2022-11-26T06:26:33.403Z,196.50
2022-11-26T06:27:33.386Z,116.10
2022-11-26T06:28:33.408Z,147.40
2022-11-26T06:29:33.368Z,145.30
2022-11-26T06:30:33.356Z,141.50
2022-11-26T06:31:33.389Z,146.90
2022-11-26T06:32:33.337Z,191.30
2022-11-26T06:33:33.352Z,116.00
2022-11-26T06:34:33.316Z,106.10
2022-11-26T06:35:33.304Z,243.70
2022-11-26T06:36:33.296Z,119.20
2022-11-26T06:37:33.275Z,120.60
2022-11-26T06:38:33.268Z,308.80
2022-11-26T06:39:33.296Z,188.90
2022-11-26T06:40:33.249Z,110.30
2022-11-26T06:41:33.256Z,200.40
2022-11-26T06:42:33.228Z,216.60
2022-11-26T06:43:33.215Z,184.30
2022-11-26T06:44:33.194Z,159.60
2022-11-26T06:45:33.280Z,105.90
2022-11-26T06:46:33.177Z,212.20
2022-11-26T06:47:33.171Z,180.50
2022-11-26T06:48:33.156Z,164.40
2022-11-26T06:49:33.149Z,182.70
2022-11-26T06:50:33.133Z,194.60
2022-11-26T06:51:33.147Z,119.10
2022-11-26T06:52:33.114Z,189.40
2022-11-26T06:53:33.102Z,120.70
2022-11-26T06:54:33.134Z,151.50
2022-11-26T06:55:33.080Z,113.20
2022-11-26T06:56:33.086Z,124.90
2022-11-26T06:57:33.106Z,164.50
2022-11-26T06:58:33.041Z,170.10
2022-11-26T06:59:33.038Z,229.80
2022-11-26T07:00:33.022Z,160.80
2022-11-26T07:01:33.151Z,168.10
2022-11-26T07:02:33.046Z,142.60
2022-11-26T07:03:33.573Z,152.50
2022-11-26T07:04:32.976Z,178.20
2022-11-26T07:05:32.972Z,157.80
2022-11-26T07:06:32.978Z,174.00
2022-11-26T07:07:32.999Z,152.30
2022-11-26T07:08:32.934Z,190.50
2022-11-26T07:09:32.928Z,173.40
2022-11-26T07:10:32.922Z,140.70
2022-11-26T07:11:32.924Z,207.10
2022-11-26T07:12:32.887Z,159.10
2022-11-26T07:13:32.882Z,189.90
2022-11-26T07:14:32.867Z,163.40
2022-11-26T07:15:32.863Z,100.30
2022-11-26T07:16:32.913Z,234.30
2022-11-26T07:17:32.840Z,169.40
2022-11-26T07:18:32.827Z,227.90
2022-11-26T07:19:32.818Z,132.80
2022-11-26T07:20:32.800Z,175.60
2022-11-26T07:21:32.819Z,216.00
2022-11-26T07:22:32.778Z,146.10
2022-11-26T07:23:32.800Z,185.70
2022-11-26T07:24:32.755Z,258.60
2022-11-26T07:25:32.748Z,288.70
2022-11-26T07:26:32.769Z,212.10
2022-11-26T07:27:33.044Z,128.00
2022-11-26T07:28:32.714Z,251.50
2022-11-26T07:29:32.708Z,243.90
2022-11-26T07:30:32.690Z,229.50
2022-11-26T07:31:32.827Z,172.40
2022-11-26T07:32:32.690Z,159.20
2022-11-26T07:33:32.680Z,241.30
2022-11-26T07:34:32.648Z,256.50
2022-11-26T07:35:32.631Z,221.10
2022-11-26T07:36:32.621Z,193.60
2022-11-26T07:37:32.616Z,265.20
2022-11-26T07:38:32.640Z,287.70
2022-11-26T07:39:32.595Z,283.00
2022-11-26T07:40:32.583Z,149.50
2022-11-26T07:41:32.568Z,177.30
2022-11-26T07:42:32.561Z,374.80
2022-11-26T07:43:32.547Z,308.70
2022-11-26T07:44:32.580Z,224.90
2022-11-26T07:45:32.522Z,392.40
2022-11-26T07:46:32.558Z,206.40
2022-11-26T07:47:32.503Z,237.10
2022-11-26T07:48:32.493Z,304.50
2022-11-26T07:49:32.479Z,174.20
2022-11-26T07:50:32.511Z,403.80
2022-11-26T07:51:32.456Z,502.70
2022-11-26T07:52:32.452Z,379.40
2022-11-26T07:53:32.440Z,497.00
2022-11-26T07:54:32.431Z,369.30
2022-11-26T07:55:32.409Z,240.30
2022-11-26T07:56:32.431Z,182.10
2022-11-26T07:57:32.395Z,430.90
2022-11-26T07:58:32.383Z,371.30
2022-11-26T07:59:32.369Z,324.90
2022-11-26T08:00:32.456Z,327.50
2022-11-26T08:01:32.467Z,177.30
2022-11-26T08:02:32.360Z,400.40
2022-11-26T08:03:32.323Z,207.80
2022-11-26T08:04:32.318Z,287.50
2022-11-26T08:05:32.304Z,258.10
2022-11-26T08:06:32.298Z,320.90
2022-11-26T08:07:32.352Z,268.20
2022-11-26T08:08:32.276Z,249.60
2022-11-26T08:09:32.259Z,231.40
2022-11-26T08:10:32.256Z,324.30
2022-11-26T08:11:32.235Z,261.80
2022-11-26T08:12:32.228Z,266.40
2022-11-26T08:13:32.234Z,250.30
2022-11-26T08:14:32.206Z,332.70
2022-11-26T08:15:32.194Z,248.00
2022-11-26T08:16:32.250Z,362.90
2022-11-26T08:17:32.172Z,253.10
2022-11-26T08:18:32.174Z,288.00
2022-11-26T08:19:32.241Z,306.00
2022-11-26T08:20:32.139Z,293.00
2022-11-26T08:21:32.124Z,293.30
2022-11-26T08:22:32.120Z,190.30
2022-11-26T08:23:32.103Z,272.60
2022-11-26T08:24:32.102Z,293.00
2022-11-26T08:25:32.107Z,305.30
2022-11-26T08:26:37.101Z,199.90
2022-11-26T08:27:32.068Z,279.20
2022-11-26T08:28:32.052Z,267.60
2022-11-26T08:29:32.040Z,171.80
2022-11-26T08:30:32.038Z,201.30
2022-11-26T08:31:32.082Z,244.50
2022-11-26T08:32:32.005Z,229.40
2022-11-26T08:33:32.015Z,161.30
2022-11-26T08:34:32.094Z,251.30
2022-11-26T08:35:59.163Z,263.80
2022-11-26T08:36:32.001Z,251.20
2022-11-26T08:37:31.954Z,277.20
2022-11-26T08:38:31.943Z,229.70
2022-11-26T08:39:31.932Z,207.90
2022-11-26T08:40:31.985Z,274.40
2022-11-26T08:41:31.902Z,239.30
2022-11-26T08:42:31.928Z,255.30
2022-11-26T08:44:04.012Z,244.90
2022-11-26T08:44:31.881Z,235.00
2022-11-26T08:45:31.916Z,293.80
2022-11-26T08:46:31.884Z,235.90
2022-11-26T08:47:32.599Z,216.30
2022-11-26T08:48:32.007Z,185.50
2022-11-26T08:49:31.848Z,239.10
2022-11-26T08:50:31.809Z,185.70
2022-11-26T08:51:31.795Z,182.30
2022-11-26T08:52:31.786Z,228.70
2022-11-26T08:53:31.772Z,261.10
2022-11-26T08:54:31.783Z,227.40
2022-11-26T08:55:58.904Z,249.50
2022-11-26T08:56:31.749Z,224.20
2022-11-26T08:57:31.729Z,238.00
2022-11-26T08:58:31.742Z,216.60
2022-11-26T08:59:31.724Z,217.00
2022-11-26T09:00:31.695Z,190.50
2022-11-26T09:01:31.700Z,281.40
2022-11-26T09:02:31.672Z,209.30
2022-11-26T09:03:31.656Z,226.30
2022-11-26T09:04:31.670Z,157.90
2022-11-26T09:05:31.635Z,200.40
2022-11-26T09:06:31.633Z,178.90
2022-11-26T09:07:31.663Z,209.60
2022-11-26T09:08:31.606Z,237.10
2022-11-26T09:09:31.617Z,199.20
2022-11-26T09:10:31.583Z,222.30
2022-11-26T09:11:31.565Z,184.00
2022-11-26T09:12:31.606Z,164.00
2022-11-26T09:13:31.549Z,226.00
2022-11-26T09:14:31.633Z,171.10
2022-11-26T09:15:31.574Z,184.00
2022-11-26T09:16:31.576Z,162.00
2022-11-26T09:17:31.499Z,170.50
2022-11-26T09:18:31.495Z,142.20
2022-11-26T09:19:31.497Z,165.00
2022-11-26T09:20:31.471Z,150.00
2022-11-26T09:21:31.455Z,157.70
2022-11-26T09:22:31.447Z,152.10
2022-11-26T09:23:31.437Z,176.40
2022-11-26T09:24:31.448Z,175.70
2022-11-26T09:25:31.408Z,174.40
2022-11-26T09:26:31.406Z,172.10
2022-11-26T09:27:31.390Z,153.50
2022-11-26T09:28:31.387Z,153.40
2022-11-26T09:29:31.385Z,145.50
2022-11-26T09:30:31.362Z,173.50
2022-11-26T09:31:31.364Z,177.60
2022-11-26T09:32:34.335Z,151.00
2022-11-26T09:33:31.344Z,164.70
2022-11-26T09:34:31.360Z,157.30
2022-11-26T09:35:31.365Z,174.70
2022-11-26T09:36:31.314Z,136.80
2022-11-26T09:37:31.277Z,169.70
2022-11-26T09:38:31.265Z,145.60
2022-11-26T09:39:31.262Z,149.30
2022-11-26T09:40:31.242Z,165.80
2022-11-26T09:41:31.235Z,146.50
2022-11-26T09:42:31.261Z,133.90
2022-11-26T09:43:31.214Z,175.00
2022-11-26T09:44:31.197Z,151.20
2022-11-26T09:45:31.305Z,140.00
2022-11-26T09:46:40.927Z,166.40
2022-11-26T09:47:31.179Z,156.50
2022-11-26T09:48:31.179Z,155.50
2022-11-26T09:49:31.156Z,137.60
2022-11-26T09:50:31.131Z,149.40
2022-11-26T09:51:31.121Z,143.20
2022-11-26T09:52:31.126Z,151.70
2022-11-26T09:53:31.139Z,118.50
2022-11-26T09:54:31.085Z,138.80
2022-11-26T09:55:31.076Z,136.40
2022-11-26T09:56:31.063Z,134.40
2022-11-26T09:57:31.062Z,136.00
2022-11-26T09:58:31.044Z,157.50
2022-11-26T09:59:31.075Z,123.00
2022-11-26T10:00:31.014Z,116.90
2022-11-26T10:01:31.081Z,122.00
2022-11-26T10:02:31.036Z,114.50
2022-11-26T10:03:30.988Z,115.00
2022-11-26T10:04:30.972Z,117.20
2022-11-26T10:05:30.990Z,110.50
2022-11-26T10:06:30.951Z,129.10
2022-11-26T10:07:30.986Z,110.10
2022-11-26T10:08:30.928Z,106.10
2022-11-26T10:09:30.922Z,109.80
2022-11-26T10:10:30.902Z,114.70
2022-11-26T10:11:30.936Z,112.10
2022-11-26T10:12:30.885Z,116.20
2022-11-26T10:13:30.876Z,110.70
2022-11-26T10:14:30.882Z,129.80
2022-11-26T10:15:30.854Z,109.70
2022-11-26T10:16:30.941Z,115.20
2022-11-26T10:17:30.855Z,102.10
2022-11-26T10:18:30.817Z,95.40
2022-11-26T10:19:30.810Z,107.40
2022-11-26T10:20:30.806Z,110.90
2022-11-26T10:21:57.165Z,112.80
2022-11-26T10:22:30.813Z,99.10
2022-11-26T10:23:30.769Z,103.60
2022-11-26T10:24:30.749Z,100.00
2022-11-26T10:25:30.749Z,103.40
2022-11-26T10:26:30.732Z,93.90
2022-11-26T10:27:30.720Z,91.70
2022-11-26T10:28:30.744Z,93.20
2022-11-26T10:29:30.698Z,87.50
2022-11-26T10:30:30.681Z,99.80
2022-11-26T10:31:30.744Z,92.40
2022-11-26T10:32:30.664Z,93.60
2022-11-26T10:33:30.656Z,81.90
2022-11-26T10:34:35.912Z,85.40
2022-11-26T10:35:30.642Z,85.40
2022-11-26T10:36:30.616Z,84.70
2022-11-26T10:37:30.612Z,93.60
2022-11-26T10:38:30.599Z,79.90
2022-11-26T10:39:30.599Z,89.90
2022-11-26T10:40:30.619Z,87.60
2022-11-26T10:41:30.566Z,86.80
2022-11-26T10:42:30.556Z,91.30
2022-11-26T10:43:30.538Z,82.10
2022-11-26T10:44:30.534Z,87.10
2022-11-26T10:45:30.522Z,90.00
2022-11-26T10:46:30.574Z,89.20
2022-11-26T10:47:30.495Z,77.90
2022-11-26T10:48:30.487Z,77.70
2022-11-26T10:49:30.472Z,80.00
2022-11-26T10:51:30.488Z,78.20
2022-11-26T10:52:30.442Z,77.20
2022-11-26T10:53:30.432Z,83.00
2022-11-26T10:54:30.424Z,73.60
2022-11-26T10:55:30.405Z,75.60
2022-11-26T10:56:30.400Z,78.60
2022-11-26T10:57:30.405Z,81.70
2022-11-26T10:58:30.381Z,73.50
2022-11-26T10:59:30.363Z,77.20
2022-11-26T11:00:30.371Z,67.00
2022-11-26T11:01:30.354Z,72.30
2022-11-26T11:02:30.388Z,69.90
2022-11-26T11:03:59.761Z,71.70
2022-11-26T11:04:30.320Z,64.20
2022-11-26T11:05:30.294Z,73.30
2022-11-26T11:06:30.288Z,72.40
2022-11-26T11:07:30.316Z,68.90
2022-11-26T11:08:30.269Z,60.20
2022-11-26T11:09:30.271Z,64.90
2022-11-26T11:10:30.246Z,69.90
2022-11-26T11:11:30.230Z,64.80
2022-11-26T11:12:30.221Z,61.70
2022-11-26T11:13:30.207Z,61.10
2022-11-26T11:14:30.206Z,69.30
2022-11-26T11:15:30.216Z,58.30
2022-11-26T11:16:30.232Z,64.30
2022-11-26T11:17:30.161Z,62.70
2022-11-26T11:18:30.154Z,58.80
2022-11-26T11:19:30.137Z,64.00
2022-11-26T11:20:30.156Z,58.70
2022-11-26T11:21:30.141Z,57.00
2022-11-26T11:22:30.119Z,57.30
2022-11-26T11:24:00.152Z,54.10
2022-11-26T11:24:30.097Z,54.40
2022-11-26T11:25:30.082Z,56.70
2022-11-26T11:26:30.089Z,60.50
2022-11-26T11:27:30.049Z,53.20
2022-11-26T11:28:30.040Z,55.10
2022-11-26T11:29:30.029Z,52.40
2022-11-26T11:30:30.045Z,56.10
2022-11-26T11:31:30.052Z,51.90
2022-11-26T11:32:30.028Z,51.10
2022-11-26T11:33:29.982Z,51.90
2022-11-26T11:34:29.976Z,47.00
2022-11-26T11:35:29.960Z,54.00
2022-11-26T11:36:29.953Z,49.20
2022-11-26T11:37:29.937Z,52.90
2022-11-26T11:38:29.953Z,47.50
2022-11-26T11:39:29.917Z,49.60
2022-11-26T11:40:29.906Z,50.10
2022-11-26T11:41:29.903Z,51.10
2022-11-26T11:42:29.882Z,53.30
2022-11-26T11:43:29.876Z,50.90
2022-11-26T11:44:29.894Z,49.40
2022-11-26T11:45:29.914Z,52.20
2022-11-26T11:46:29.836Z,52.10
2022-11-26T11:47:29.912Z,48.50
2022-11-26T11:48:29.888Z,47.10
2022-11-26T11:49:29.865Z,46.80
2022-11-26T11:50:29.813Z,49.90
2022-11-26T11:51:29.782Z,50.00
2022-11-26T11:52:29.767Z,46.40
2022-11-26T11:53:29.760Z,43.20
2022-11-26T11:54:29.746Z,46.00
2022-11-26T11:55:29.762Z,47.00
2022-11-26T11:56:29.723Z,44.40
2022-11-26T11:57:29.719Z,46.70
2022-11-26T11:58:29.703Z,41.40
2022-11-26T11:59:29.696Z,47.40
2022-11-26T12:00:29.705Z,45.40
2022-11-26T12:01:29.672Z,39.80
2022-11-26T12:02:29.697Z,45.20
2022-11-26T12:03:29.647Z,41.30
2022-11-26T12:04:29.658Z,44.90
2022-11-26T12:05:29.651Z,38.90
2022-11-26T12:06:29.612Z,45.30
2022-11-26T12:07:29.664Z,42.20
2022-11-26T12:08:29.589Z,34.60
2022-11-26T12:09:29.791Z,41.50
2022-11-26T12:10:34.044Z,43.40
2022-11-26T12:11:29.633Z,47.60
2022-11-26T12:12:29.544Z,42.60
2022-11-26T12:13:29.538Z,46.60
2022-11-26T12:14:29.533Z,39.10
2022-11-26T12:15:29.544Z,40.70
2022-11-26T12:16:29.520Z,42.40
2022-11-26T12:17:33.178Z,36.00
2022-11-26T12:18:29.477Z,40.50
2022-11-26T12:19:29.473Z,44.20
2022-11-26T12:20:29.480Z,41.10
2022-11-26T12:21:29.451Z,38.60
2022-11-26T12:22:29.443Z,44.50
2022-11-26T12:23:29.429Z,37.30
2022-11-26T12:24:29.415Z,41.80
2022-11-26T12:25:35.002Z,40.40
2022-11-26T12:26:29.392Z,40.60
2022-11-26T12:27:29.384Z,44.40
2022-11-26T12:28:29.367Z,40.00
2022-11-26T12:29:29.365Z,44.80
2022-11-26T12:30:29.369Z,44.50
2022-11-26T12:31:29.356Z,40.80
2022-11-26T12:32:29.324Z,43.00
2022-11-26T12:33:29.330Z,38.80
2022-11-26T12:34:29.297Z,39.00
2022-11-26T12:35:29.314Z,39.10